createdAt,value
2017-07-11T00:00:47.146Z,90.50
2017-07-11T00:03:15.551Z,90.20
2017-07-11T00:05:43.137Z,90.20
2017-07-11T00:08:11.499Z,90.50
2017-07-11T00:10:39.109Z,90.20
2017-07-11T00:13:06.711Z,90.20
2017-07-11T00:15:35.054Z,90.10
2017-07-11T00:18:02.696Z,90.10
2017-07-11T00:20:30.278Z,90.30
2017-07-11T00:22:57.865Z,90.50
2017-07-11T00:25:25.480Z,90.80
2017-07-11T00:27:53.088Z,90.80
2017-07-11T00:30:20.658Z,90.80
2017-07-11T00:32:48.298Z,90.80
2017-07-11T00:35:15.885Z,90.80
2017-07-11T00:37:43.471Z,90.80
2017-07-11T00:40:11.100Z,90.90
2017-07-11T00:42:38.684Z,91.00
2017-07-11T00:45:06.287Z,90.90
2017-07-11T00:47:33.925Z,91.00
2017-07-11T00:50:01.512Z,91.00
2017-07-11T00:52:29.095Z,91.10
2017-07-11T00:54:56.751Z,90.80
2017-07-11T00:57:24.346Z,90.50
2017-07-11T00:59:51.936Z,90.30
2017-07-11T01:02:19.564Z,89.70
2017-07-11T01:04:47.161Z,89.50
2017-07-11T01:07:15.507Z,89.50
2017-07-11T01:09:43.925Z,89.40
2017-07-11T01:12:11.517Z,89.10
2017-07-11T01:14:39.104Z,89.90
2017-07-11T01:17:06.754Z,89.40
2017-07-11T01:19:34.348Z,89.40
2017-07-11T01:22:01.921Z,89.70
2017-07-11T01:24:29.538Z,89.70
2017-07-11T01:26:57.124Z,90.10
2017-07-11T01:29:24.724Z,90.40
2017-07-11T01:31:52.360Z,90.20
2017-07-11T01:34:19.955Z,90.10
2017-07-11T01:36:47.555Z,90.00
2017-07-11T01:39:15.177Z,89.30
2017-07-11T01:41:42.756Z,89.70
2017-07-11T01:44:11.195Z,89.60
2017-07-11T01:46:38.832Z,89.50
2017-07-11T01:49:06.435Z,89.80
2017-07-11T01:51:34.035Z,90.00
2017-07-11T01:54:01.668Z,90.10
2017-07-11T01:56:29.259Z,90.20
2017-07-11T01:58:56.855Z,90.10
2017-07-11T02:01:24.483Z,90.20
2017-07-11T02:03:52.068Z,90.30
2017-07-11T02:06:19.658Z,90.40
2017-07-11T02:08:47.306Z,90.30
2017-07-11T02:11:14.893Z,90.00
2017-07-11T02:13:42.481Z,90.00
2017-07-11T02:16:10.118Z,90.00
2017-07-11T02:18:37.705Z,90.30
2017-07-11T02:21:05.276Z,90.40
2017-07-11T02:23:32.903Z,90.30
2017-07-11T02:26:00.502Z,90.20
2017-07-11T02:28:28.098Z,90.30
2017-07-11T02:30:55.746Z,90.30
2017-07-11T02:33:23.358Z,90.30
2017-07-11T02:35:50.945Z,90.30
2017-07-11T02:38:18.579Z,90.30
2017-07-11T02:40:46.175Z,90.30
2017-07-11T02:43:13.774Z,90.30
2017-07-11T02:45:41.425Z,90.30
2017-07-11T02:48:09.012Z,90.20
2017-07-11T02:50:36.598Z,90.30
2017-07-11T02:53:04.227Z,90.30
2017-07-11T02:55:31.815Z,90.10
2017-07-11T02:58:00.171Z,89.90
2017-07-11T03:00:27.806Z,89.90
2017-07-11T03:02:55.378Z,90.00
2017-07-11T03:05:22.961Z,90.40
2017-07-11T03:07:50.591Z,90.00
2017-07-11T03:10:18.183Z,90.00
2017-07-11T03:12:45.783Z,90.00
2017-07-11T03:15:13.428Z,89.90
2017-07-11T03:17:41.013Z,90.00
2017-07-11T03:20:08.595Z,90.00
2017-07-11T03:22:36.219Z,90.00
2017-07-11T03:25:03.809Z,90.00
2017-07-11T03:27:31.396Z,89.90
2017-07-11T03:29:59.044Z,90.10
2017-07-11T03:32:26.636Z,90.00
2017-07-11T03:34:54.237Z,90.00
2017-07-11T03:37:22.647Z,90.40
2017-07-11T03:39:50.249Z,90.10
2017-07-11T03:42:17.822Z,90.10
2017-07-11T03:44:45.464Z,90.10
2017-07-11T03:47:13.060Z,90.10
2017-07-11T03:49:40.648Z,89.90
2017-07-11T03:52:08.271Z,90.10
2017-07-11T03:54:36.636Z,90.20
2017-07-11T03:57:04.999Z,90.10
2017-07-11T03:59:32.633Z,90.10
2017-07-11T04:02:00.974Z,90.50
2017-07-11T04:04:28.589Z,90.20
2017-07-11T04:06:56.216Z,90.10
2017-07-11T04:09:23.802Z,90.10
2017-07-11T04:11:51.389Z,90.30
2017-07-11T04:14:19.769Z,90.40
2017-07-11T04:16:47.379Z,90.30
2017-07-11T04:19:14.954Z,90.30
2017-07-11T04:21:42.579Z,90.40
2017-07-11T04:24:10.913Z,90.60
2017-07-11T04:26:38.509Z,90.20
2017-07-11T04:29:06.163Z,90.00
2017-07-11T04:31:33.990Z,90.00
2017-07-11T04:34:01.611Z,90.10
2017-07-11T04:36:29.243Z,90.20
2017-07-11T04:38:56.853Z,90.30
2017-07-11T04:41:24.453Z,90.10
2017-07-11T04:43:52.854Z,90.00
2017-07-11T04:46:20.443Z,90.20
2017-07-11T04:48:48.045Z,90.30
2017-07-11T04:51:15.718Z,90.40
2017-07-11T04:53:43.307Z,90.50
2017-07-11T04:56:11.532Z,90.40
2017-07-11T04:58:39.164Z,90.40
2017-07-11T05:01:06.768Z,90.50
2017-07-11T05:03:34.366Z,90.60
2017-07-11T05:06:02.169Z,90.60
2017-07-11T05:08:29.758Z,90.60
2017-07-11T05:10:57.344Z,90.70
2017-07-11T05:13:25.727Z,90.60
2017-07-11T05:15:53.316Z,90.60
2017-07-11T05:18:20.903Z,90.60
2017-07-11T05:20:48.551Z,90.60
2017-07-11T05:23:16.275Z,90.30
2017-07-11T05:25:44.627Z,90.50
2017-07-11T05:28:12.282Z,90.40
2017-07-11T05:30:40.647Z,90.30
2017-07-11T05:33:09.309Z,90.10
2017-07-11T05:35:37.722Z,90.20
2017-07-11T05:38:05.294Z,90.20
2017-07-11T05:40:32.899Z,90.30
2017-07-11T05:43:00.529Z,90.40
2017-07-11T05:45:28.120Z,90.50
2017-07-11T05:47:55.718Z,90.60
2017-07-11T05:50:23.369Z,90.80
2017-07-11T05:52:50.979Z,90.80
2017-07-11T05:55:18.583Z,91.00
2017-07-11T05:57:46.391Z,91.00
2017-07-11T06:00:13.979Z,91.10
2017-07-11T06:02:41.572Z,91.10
2017-07-11T06:05:10.005Z,91.10
2017-07-11T06:07:37.596Z,91.00
2017-07-11T06:10:05.183Z,91.30
2017-07-11T06:12:32.817Z,91.40
2017-07-11T06:15:00.424Z,91.30
2017-07-11T06:17:28.024Z,91.60
2017-07-11T06:19:55.635Z,91.70
2017-07-11T06:22:23.297Z,91.80
2017-07-11T06:24:50.904Z,91.90
2017-07-11T06:27:19.379Z,92.00
2017-07-11T06:29:46.986Z,92.00
2017-07-11T06:32:14.580Z,91.70
2017-07-11T06:34:42.220Z,91.90
2017-07-11T06:37:09.818Z,92.00
2017-07-11T06:39:37.399Z,91.90
2017-07-11T06:42:05.034Z,92.20
2017-07-11T06:44:32.628Z,92.20
2017-07-11T06:47:01.848Z,92.10
2017-07-11T06:49:30.234Z,92.30
2017-07-11T06:51:57.824Z,92.00
2017-07-11T06:54:25.483Z,91.90
2017-07-11T06:56:53.076Z,91.90
2017-07-11T06:59:20.662Z,91.90
2017-07-11T07:01:48.246Z,91.70
2017-07-11T07:04:16.673Z,91.30
2017-07-11T07:06:44.278Z,91.30
2017-07-11T07:09:11.872Z,91.10
2017-07-11T07:11:39.503Z,91.30
2017-07-11T07:14:07.082Z,91.00
2017-07-11T07:16:34.669Z,90.90
2017-07-11T07:19:02.294Z,90.90
2017-07-11T07:21:30.167Z,90.80
2017-07-11T07:23:57.756Z,90.80
2017-07-11T07:26:25.392Z,90.60
2017-07-11T07:28:52.978Z,90.10
2017-07-11T07:31:20.652Z,90.10
2017-07-11T07:33:48.295Z,89.90
2017-07-11T07:36:15.873Z,88.70
2017-07-11T07:38:43.465Z,87.60
2017-07-11T07:41:11.183Z,87.20
2017-07-11T07:43:38.774Z,87.30
2017-07-11T07:46:06.378Z,86.90
2017-07-11T07:48:35.592Z,86.50
2017-07-11T07:51:03.193Z,86.50
2017-07-11T07:53:31.556Z,87.20
2017-07-11T07:55:59.950Z,87.00
2017-07-11T07:58:27.549Z,87.00
2017-07-11T08:00:55.146Z,86.50
2017-07-11T08:03:22.817Z,84.90
2017-07-11T08:05:50.416Z,84.80
2017-07-11T08:08:18.029Z,84.60
2017-07-11T08:10:46.053Z,83.20
2017-07-11T08:13:13.669Z,81.50
2017-07-11T08:15:41.254Z,80.00
2017-07-11T08:18:08.896Z,77.00
2017-07-11T08:20:36.496Z,75.10
2017-07-11T08:23:04.101Z,72.60
2017-07-11T08:25:31.753Z,71.60
2017-07-11T08:27:59.358Z,70.00
2017-07-11T08:30:26.944Z,69.30
2017-07-11T08:32:54.569Z,68.60
2017-07-11T08:35:22.156Z,68.50
2017-07-11T08:37:50.508Z,68.80
2017-07-11T08:40:19.416Z,68.10
2017-07-11T08:42:47.011Z,68.00
2017-07-11T08:45:14.601Z,68.50
2017-07-11T08:47:42.215Z,67.10
2017-07-11T08:50:10.589Z,68.60
2017-07-11T08:52:38.190Z,68.40
2017-07-11T08:55:05.814Z,68.70
2017-07-11T08:57:33.414Z,68.80
2017-07-11T09:00:01.005Z,69.30
2017-07-11T09:02:28.643Z,70.90
2017-07-11T09:04:57.185Z,70.80
2017-07-11T09:07:24.776Z,71.30
2017-07-11T09:09:52.399Z,70.60
2017-07-11T09:12:19.971Z,68.90
2017-07-11T09:14:47.584Z,68.10
2017-07-11T09:17:15.232Z,67.00
2017-07-11T09:19:42.843Z,66.00
2017-07-11T09:22:11.211Z,66.40
2017-07-11T09:24:38.834Z,66.40
2017-07-11T09:27:06.407Z,65.40
2017-07-11T09:29:34.006Z,65.70
2017-07-11T09:32:01.654Z,64.90
2017-07-11T09:34:29.257Z,64.90
2017-07-11T09:36:56.941Z,64.60
2017-07-11T09:39:24.566Z,63.60
2017-07-11T09:41:52.157Z,63.40
2017-07-11T09:44:19.721Z,62.50
2017-07-11T09:46:47.356Z,60.90
2017-07-11T09:49:14.973Z,60.70
2017-07-11T09:51:42.559Z,61.80
2017-07-11T09:54:10.195Z,63.20
2017-07-11T09:56:38.554Z,66.60
2017-07-11T09:59:06.900Z,67.50
2017-07-11T10:01:35.304Z,67.40
2017-07-11T10:04:02.900Z,66.60
2017-07-11T10:06:30.496Z,68.40
2017-07-11T10:08:58.116Z,68.10
2017-07-11T10:11:26.546Z,66.00
2017-07-11T10:13:54.140Z,66.80
2017-07-11T10:16:21.794Z,63.50
2017-07-11T10:18:49.401Z,62.10
2017-07-11T10:21:17.777Z,61.70
2017-07-11T10:23:45.395Z,61.60
2017-07-11T10:26:12.983Z,60.80
2017-07-11T10:28:40.591Z,59.20
2017-07-11T10:31:08.988Z,59.40
2017-07-11T10:33:36.580Z,59.30
2017-07-11T10:36:04.190Z,59.40
2017-07-11T10:38:31.838Z,59.70
2017-07-11T10:40:59.421Z,60.00
2017-07-11T10:43:27.060Z,61.10
2017-07-11T10:45:54.683Z,61.60
2017-07-11T10:48:22.309Z,65.00
2017-07-11T10:50:49.907Z,66.50
2017-07-11T10:53:17.537Z,68.80
2017-07-11T10:55:45.119Z,69.90
2017-07-11T10:58:12.694Z,72.00
2017-07-11T11:00:40.320Z,72.30
2017-07-11T11:03:07.905Z,73.60
2017-07-11T11:05:35.485Z,74.40
2017-07-11T11:08:03.880Z,75.00
2017-07-11T11:10:31.477Z,75.00
2017-07-11T11:12:59.069Z,72.90
2017-07-11T11:15:26.696Z,70.80
2017-07-11T11:17:54.281Z,67.50
2017-07-11T11:20:21.864Z,68.50
2017-07-11T11:22:50.274Z,66.20
2017-07-11T11:25:17.841Z,66.10
2017-07-11T11:27:45.410Z,65.60
2017-07-11T11:30:13.019Z,64.80
2017-07-11T11:32:40.608Z,63.90
2017-07-11T11:35:08.942Z,62.60
2017-07-11T11:37:36.567Z,62.60
2017-07-11T11:40:04.153Z,64.30
2017-07-11T11:42:32.591Z,64.00
2017-07-11T11:45:00.227Z,63.20
2017-07-11T11:47:27.829Z,66.80
2017-07-11T11:49:55.421Z,68.50
2017-07-11T11:52:23.047Z,70.70
2017-07-11T11:54:50.640Z,71.20
2017-07-11T11:57:19.002Z,70.60
2017-07-11T11:59:46.626Z,70.60
2017-07-11T12:02:14.205Z,70.10
2017-07-11T12:04:42.548Z,68.20
2017-07-11T12:07:10.184Z,68.20
2017-07-11T12:09:37.758Z,66.80
2017-07-11T12:12:06.118Z,64.70
2017-07-11T12:14:34.516Z,63.90
2017-07-11T12:17:02.107Z,63.80
2017-07-11T12:19:30.466Z,61.00
2017-07-11T12:21:58.114Z,60.90
2017-07-11T12:24:26.484Z,60.00
2017-07-11T12:26:54.850Z,59.40
2017-07-11T12:29:23.244Z,57.40
2017-07-11T12:31:50.841Z,57.40
2017-07-11T12:34:18.454Z,58.30
2017-07-11T12:36:46.092Z,58.20
2017-07-11T12:39:13.677Z,58.30
2017-07-11T12:41:41.275Z,59.00
2017-07-11T12:44:08.913Z,58.70
2017-07-11T12:46:36.493Z,57.70
2017-07-11T12:49:04.106Z,57.70
2017-07-11T12:51:31.733Z,58.80
2017-07-11T12:53:59.309Z,58.00
2017-07-11T12:56:26.882Z,58.50
2017-07-11T12:58:54.522Z,57.40
2017-07-11T13:01:22.122Z,58.60
2017-07-11T13:03:49.730Z,56.00
2017-07-11T13:06:18.136Z,55.30
2017-07-11T13:08:46.244Z,55.50
2017-07-11T13:11:13.822Z,56.50
2017-07-11T13:13:41.448Z,57.60
2017-07-11T13:16:09.042Z,58.10
2017-07-11T13:18:36.611Z,59.20
2017-07-11T13:21:04.245Z,59.30
2017-07-11T13:23:31.813Z,59.90
2017-07-11T13:25:59.387Z,61.00
2017-07-11T13:28:27.024Z,61.60
2017-07-11T13:30:54.589Z,62.10
2017-07-11T13:33:22.167Z,63.10
2017-07-11T13:35:49.786Z,64.30
2017-07-11T13:38:17.409Z,64.80
2017-07-11T13:40:45.008Z,66.10
2017-07-11T13:43:12.635Z,67.90
2017-07-11T13:45:40.252Z,69.70
2017-07-11T13:48:07.863Z,71.70
2017-07-11T13:50:36.259Z,71.70
2017-07-11T13:53:03.843Z,71.60
2017-07-11T13:55:31.437Z,71.40
2017-07-11T13:57:59.068Z,71.20
2017-07-11T14:00:26.646Z,71.90
2017-07-11T14:02:54.246Z,71.60
2017-07-11T14:05:22.637Z,71.40
2017-07-11T14:07:50.206Z,71.20
2017-07-11T14:10:17.780Z,71.50
2017-07-11T14:12:45.407Z,70.80
2017-07-11T14:15:12.990Z,71.50
2017-07-11T14:17:41.336Z,69.30
2017-07-11T14:20:08.955Z,69.20
2017-07-11T14:22:36.559Z,68.60
2017-07-11T14:25:04.144Z,68.60
2017-07-11T14:27:31.764Z,69.30
2017-07-11T14:29:59.357Z,68.50
2017-07-11T14:32:26.946Z,67.00
2017-07-11T14:34:54.598Z,65.80
2017-07-11T14:37:22.213Z,66.10
2017-07-11T14:39:50.568Z,65.60
2017-07-11T14:42:18.199Z,65.60
2017-07-11T14:44:45.814Z,65.80
2017-07-11T14:47:13.405Z,66.30
2017-07-11T14:49:42.065Z,66.50
2017-07-11T14:52:09.639Z,66.50
2017-07-11T14:54:37.221Z,65.70
2017-07-11T14:57:04.869Z,65.80
2017-07-11T14:59:32.438Z,65.30
2017-07-11T15:02:00.013Z,65.00
2017-07-11T15:04:27.644Z,64.00
2017-07-11T15:06:55.998Z,63.80
2017-07-11T15:09:24.348Z,63.50
2017-07-11T15:11:51.984Z,64.00
2017-07-11T15:14:19.550Z,63.50
2017-07-11T15:16:47.893Z,62.70
2017-07-11T15:19:15.517Z,62.10
2017-07-11T15:21:43.091Z,61.40
2017-07-11T15:24:10.685Z,62.30
2017-07-11T15:26:38.308Z,61.60
2017-07-11T15:29:05.898Z,61.40
2017-07-11T15:31:34.265Z,62.40
2017-07-11T15:34:02.757Z,61.60
2017-07-11T15:36:31.220Z,60.80
2017-07-11T15:38:59.745Z,61.00
2017-07-11T15:41:29.215Z,60.10
2017-07-11T15:43:57.520Z,60.10
2017-07-11T15:46:25.976Z,60.80
2017-07-11T15:48:54.733Z,60.60
2017-07-11T15:51:23.428Z,60.40
2017-07-11T15:53:51.766Z,60.50
2017-07-11T15:56:20.203Z,60.30
2017-07-11T15:58:48.891Z,60.20
2017-07-11T16:01:18.089Z,60.30
2017-07-11T16:03:46.889Z,59.80
2017-07-11T16:06:15.667Z,59.70
2017-07-11T16:08:44.367Z,59.70
2017-07-11T16:11:12.895Z,58.60
2017-07-11T16:13:41.546Z,59.00
2017-07-11T16:16:10.124Z,59.20
2017-07-11T16:18:38.206Z,59.50
2017-07-11T16:21:07.373Z,58.90
2017-07-11T16:23:35.902Z,58.70
2017-07-11T16:26:04.526Z,58.90
2017-07-11T16:28:32.871Z,58.40
2017-07-11T16:31:01.249Z,58.70
2017-07-11T16:33:30.594Z,60.10
2017-07-11T16:35:59.131Z,59.70
2017-07-11T16:38:27.707Z,60.00
2017-07-11T16:40:56.371Z,60.80
2017-07-11T16:43:24.769Z,61.30
2017-07-11T16:45:52.432Z,61.50
2017-07-11T16:48:20.857Z,70.30
2017-07-11T16:50:48.441Z,70.30
2017-07-11T16:53:16.801Z,74.70
2017-07-11T16:55:45.494Z,76.80
2017-07-11T16:58:13.070Z,76.40
2017-07-11T17:00:40.657Z,76.90
2017-07-11T17:03:08.266Z,78.30
2017-07-11T17:05:35.849Z,79.20
2017-07-11T17:08:04.213Z,80.50
2017-07-11T17:10:32.624Z,81.00
2017-07-11T17:13:00.221Z,81.00
2017-07-11T17:15:28.564Z,80.40
2017-07-11T17:17:56.193Z,80.40
2017-07-11T17:20:23.785Z,80.50
2017-07-11T17:22:51.356Z,80.80
2017-07-11T17:25:18.984Z,79.60
2017-07-11T17:27:46.600Z,79.90
2017-07-11T17:30:14.957Z,80.40
2017-07-11T17:32:43.365Z,79.80
2017-07-11T17:35:10.939Z,79.70
2017-07-11T17:37:38.534Z,79.70
2017-07-11T17:42:36.152Z,79.70
2017-07-11T17:45:03.737Z,79.70
2017-07-11T17:47:31.398Z,79.10
2017-07-11T17:49:59.027Z,79.00
2017-07-11T17:52:26.639Z,80.10
2017-07-11T17:54:54.274Z,79.20
2017-07-11T17:57:21.860Z,79.50
2017-07-11T17:59:49.476Z,79.10
2017-07-11T18:02:17.878Z,79.30
2017-07-11T18:04:45.483Z,79.30
2017-07-11T18:07:13.132Z,79.70
2017-07-11T18:09:40.761Z,80.00
2017-07-11T18:12:08.329Z,81.10
2017-07-11T18:14:36.690Z,82.30
2017-07-11T18:17:05.070Z,82.40
2017-07-11T18:19:32.681Z,82.50
2017-07-11T18:22:01.042Z,83.10
2017-07-11T18:24:28.809Z,82.70
2017-07-11T18:26:56.414Z,82.30
2017-07-11T18:29:23.995Z,82.40
2017-07-11T18:31:51.655Z,82.20
2017-07-11T18:34:19.251Z,82.10
2017-07-11T18:36:46.845Z,82.20
2017-07-11T18:39:14.488Z,82.10
2017-07-11T18:41:42.095Z,82.30
2017-07-11T18:44:09.681Z,82.70
2017-07-11T18:46:37.304Z,82.70
2017-07-11T18:49:05.695Z,82.40
2017-07-11T18:51:33.287Z,82.30
2017-07-11T18:54:00.932Z,82.40
2017-07-11T18:56:28.527Z,82.10
2017-07-11T18:58:56.112Z,81.30
2017-07-11T19:01:23.742Z,81.50
2017-07-11T19:03:51.327Z,81.40
2017-07-11T19:06:18.934Z,82.10
2017-07-11T19:08:46.581Z,82.40
2017-07-11T19:11:14.169Z,82.10
2017-07-11T19:13:42.520Z,82.50
2017-07-11T19:16:10.909Z,83.60
2017-07-11T19:18:38.504Z,82.60
2017-07-11T19:21:06.107Z,82.70
2017-07-11T19:23:33.736Z,82.80
2017-07-11T19:26:01.335Z,82.90
2017-07-11T19:28:28.921Z,82.50
2017-07-11T19:30:57.326Z,82.10
2017-07-11T19:33:24.907Z,82.00
2017-07-11T19:35:52.496Z,82.40
2017-07-11T19:38:20.145Z,82.00
2017-07-11T19:40:47.942Z,82.40
2017-07-11T19:43:15.568Z,82.40
2017-07-11T19:45:43.907Z,81.80
2017-07-11T19:48:11.560Z,82.50
2017-07-11T19:50:39.649Z,82.00
2017-07-11T19:53:07.281Z,82.90
2017-07-11T19:55:34.851Z,82.80
2017-07-11T19:58:02.434Z,82.30
2017-07-11T20:00:30.046Z,82.00
2017-07-11T20:02:57.627Z,82.80
2017-07-11T20:05:25.215Z,82.00
2017-07-11T20:07:52.845Z,82.00
2017-07-11T20:10:20.415Z,82.40
2017-07-11T20:12:48.002Z,83.60
2017-07-11T20:15:15.647Z,83.60
2017-07-11T20:17:43.247Z,84.20
2017-07-11T20:20:11.596Z,84.10
2017-07-11T20:22:39.232Z,83.70
2017-07-11T20:25:06.823Z,83.50
2017-07-11T20:27:34.419Z,83.60
2017-07-11T20:30:02.026Z,84.10
2017-07-11T20:32:29.604Z,84.90
2017-07-11T20:34:57.184Z,85.30
2017-07-11T20:37:24.829Z,85.50
2017-07-11T20:39:52.413Z,86.10
2017-07-11T20:42:20.002Z,86.40
2017-07-11T20:44:47.640Z,86.30
2017-07-11T20:47:15.230Z,86.20
2017-07-11T20:49:42.801Z,86.10
2017-07-11T20:52:10.419Z,86.10
2017-07-11T20:54:37.982Z,86.10
2017-07-11T20:57:05.573Z,86.10
2017-07-11T20:59:33.207Z,85.50
2017-07-11T21:02:00.779Z,86.00
2017-07-11T21:04:28.364Z,86.50
2017-07-11T21:06:55.984Z,86.70
2017-07-11T21:09:23.582Z,87.30
2017-07-11T21:11:51.173Z,87.30
2017-07-11T21:14:18.786Z,87.40
2017-07-11T21:16:46.359Z,88.10
2017-07-11T21:19:13.940Z,87.70
2017-07-11T21:21:41.573Z,87.70
2017-07-11T21:24:09.159Z,87.80
2017-07-11T21:26:36.727Z,87.50
2017-07-11T21:29:04.361Z,87.30
2017-07-11T21:31:32.704Z,87.70
2017-07-11T21:34:00.291Z,87.70
2017-07-11T21:36:27.956Z,87.90
2017-07-11T21:38:55.557Z,88.00
2017-07-11T21:41:23.923Z,88.10
2017-07-11T21:43:52.317Z,88.00
2017-07-11T21:46:19.904Z,88.00
2017-07-11T21:48:47.488Z,87.90
2017-07-11T21:51:15.108Z,87.80
2017-07-11T21:53:42.691Z,88.00
2017-07-11T21:56:10.286Z,87.80
2017-07-11T21:58:37.912Z,87.80
2017-07-11T22:01:05.482Z,87.90
2017-07-11T22:03:33.049Z,88.00
2017-07-11T22:06:00.662Z,88.30
2017-07-11T22:08:28.247Z,88.00
2017-07-11T22:10:55.837Z,88.20
2017-07-11T22:13:23.455Z,88.70
2017-07-11T22:15:51.036Z,88.80
2017-07-11T22:18:18.612Z,89.00
2017-07-11T22:20:46.247Z,89.20
2017-07-11T22:23:14.600Z,89.40
2017-07-11T22:25:42.191Z,89.40
2017-07-11T22:28:09.820Z,89.40
2017-07-11T22:30:37.407Z,89.50
2017-07-11T22:33:04.999Z,89.80
2017-07-11T22:35:32.622Z,90.00
2017-07-11T22:38:00.214Z,90.00
2017-07-11T22:40:27.787Z,90.00
2017-07-11T22:42:55.443Z,90.00
2017-07-11T22:45:23.078Z,90.10
2017-07-11T22:47:50.664Z,90.10
2017-07-11T22:50:18.306Z,90.10
2017-07-11T22:52:46.664Z,89.80
2017-07-11T22:55:15.007Z,89.90
2017-07-11T22:57:42.649Z,89.80
2017-07-11T23:00:10.232Z,90.00
2017-07-11T23:02:37.831Z,90.00
2017-07-11T23:05:05.493Z,90.00
2017-07-11T23:07:34.124Z,90.00
2017-07-11T23:10:01.709Z,89.50
2017-07-11T23:12:30.111Z,89.70
2017-07-11T23:14:57.695Z,89.70
2017-07-11T23:17:25.293Z,89.90
2017-07-11T23:19:52.928Z,90.00
2017-07-11T23:22:20.514Z,90.00
2017-07-11T23:24:48.115Z,90.40
2017-07-11T23:27:15.752Z,90.10
2017-07-11T23:29:44.099Z,89.90
2017-07-11T23:32:11.702Z,89.80
2017-07-11T23:34:39.333Z,90.00
2017-07-11T23:37:06.919Z,90.00
2017-07-11T23:39:34.494Z,90.00
2017-07-11T23:42:02.128Z,90.10
2017-07-11T23:44:29.703Z,90.10
2017-07-11T23:46:57.294Z,90.10
2017-07-11T23:49:24.949Z,90.10
2017-07-11T23:51:52.536Z,90.20
2017-07-11T23:54:20.106Z,90.10
2017-07-11T23:56:47.732Z,90.00
2017-07-11T23:59:15.328Z,89.90
